createdAt,value
2017-10-15T00:00:47.553Z,10.00
2017-10-15T00:03:14.985Z,10.80
2017-10-15T00:05:42.479Z,9.70
2017-10-15T00:08:09.908Z,9.83
2017-10-15T00:10:37.344Z,10.10
2017-10-15T00:13:04.853Z,9.13
2017-10-15T00:15:32.496Z,12.20
2017-10-15T00:17:59.952Z,13.70
2017-10-15T00:20:27.444Z,12.07
2017-10-15T00:22:54.992Z,11.43
2017-10-15T00:25:22.423Z,10.83
2017-10-15T00:27:49.852Z,10.40
2017-10-15T00:30:17.353Z,8.80
2017-10-15T00:32:44.795Z,9.90
2017-10-15T00:35:12.214Z,8.77
2017-10-15T00:37:39.635Z,8.40
2017-10-15T00:40:07.081Z,9.43
2017-10-15T00:42:34.631Z,8.43
2017-10-15T00:45:02.088Z,8.23
2017-10-15T00:47:29.520Z,7.70
2017-10-15T00:49:56.957Z,8.60
2017-10-15T00:52:24.368Z,9.20
2017-10-15T00:54:51.911Z,9.33
2017-10-15T00:57:19.336Z,9.27
2017-10-15T00:59:46.765Z,8.57
2017-10-15T01:02:14.284Z,7.83
2017-10-15T01:04:41.715Z,7.77
2017-10-15T01:07:09.149Z,8.90
2017-10-15T01:09:36.583Z,8.63
2017-10-15T01:12:04.022Z,8.50
2017-10-15T01:14:31.439Z,8.57
2017-10-15T01:16:58.961Z,7.87
2017-10-15T01:19:26.387Z,8.43
2017-10-15T01:21:53.814Z,7.80
2017-10-15T01:24:21.405Z,7.93
2017-10-15T01:26:48.839Z,7.70
2017-10-15T01:29:16.246Z,7.97
2017-10-15T01:31:43.707Z,7.63
2017-10-15T01:34:11.112Z,6.40
2017-10-15T01:36:38.540Z,7.90
2017-10-15T01:39:06.124Z,7.83
2017-10-15T01:41:33.805Z,7.30
2017-10-15T01:44:01.224Z,6.67
2017-10-15T01:46:28.816Z,6.53
2017-10-15T01:48:56.246Z,7.00
2017-10-15T01:51:23.725Z,6.20
2017-10-15T01:53:51.148Z,6.90
2017-10-15T01:56:18.581Z,6.20
2017-10-15T01:58:46.080Z,6.60
2017-10-15T02:01:13.552Z,6.73
2017-10-15T02:03:40.992Z,6.17
2017-10-15T02:06:08.461Z,6.67
2017-10-15T02:08:36.085Z,6.00
2017-10-15T02:11:03.586Z,7.57
2017-10-15T02:13:31.129Z,6.40
2017-10-15T02:15:58.568Z,6.17
2017-10-15T02:18:26.045Z,7.23
2017-10-15T02:20:53.504Z,6.10
2017-10-15T02:23:20.960Z,6.50
2017-10-15T02:25:48.622Z,5.03
2017-10-15T02:28:16.186Z,5.23
2017-10-15T02:30:43.614Z,5.77
2017-10-15T02:33:11.036Z,5.90
2017-10-15T02:35:38.541Z,5.33
2017-10-15T02:38:05.976Z,5.83
2017-10-15T02:40:33.409Z,5.17
2017-10-15T02:43:00.834Z,5.60
2017-10-15T02:45:28.283Z,5.67
2017-10-15T02:47:55.695Z,5.33
2017-10-15T02:50:23.196Z,5.63
2017-10-15T02:52:50.649Z,5.17
2017-10-15T02:55:18.099Z,5.30
2017-10-15T02:57:45.556Z,5.90
2017-10-15T03:00:13.109Z,5.93
2017-10-15T03:02:40.527Z,6.47
2017-10-15T03:05:07.952Z,5.97
2017-10-15T03:07:35.474Z,6.77
2017-10-15T03:10:02.936Z,6.50
2017-10-15T03:12:30.364Z,6.40
2017-10-15T03:14:57.784Z,6.47
2017-10-15T03:17:26.104Z,6.13
2017-10-15T03:19:53.551Z,6.63
2017-10-15T03:22:20.975Z,5.77
2017-10-15T03:24:48.558Z,5.67
2017-10-15T03:27:16.048Z,6.00
2017-10-15T03:29:43.451Z,5.90
2017-10-15T03:32:10.885Z,5.70
2017-10-15T03:34:38.312Z,6.00
2017-10-15T03:37:05.751Z,6.73
2017-10-15T03:39:33.236Z,6.77
2017-10-15T03:42:00.692Z,6.90
2017-10-15T03:44:28.243Z,6.03
2017-10-15T03:46:56.625Z,7.90
2017-10-15T03:49:24.080Z,7.80
2017-10-15T03:51:51.507Z,7.70
2017-10-15T03:54:18.991Z,7.67
2017-10-15T03:56:46.721Z,8.03
2017-10-15T03:59:14.210Z,7.00
2017-10-15T04:01:41.671Z,6.70
2017-10-15T04:04:09.103Z,7.50
2017-10-15T04:06:36.527Z,7.47
2017-10-15T04:09:03.943Z,6.10
2017-10-15T04:11:31.386Z,7.70
2017-10-15T04:13:58.851Z,8.00
2017-10-15T04:16:26.319Z,6.73
2017-10-15T04:18:53.755Z,6.43
2017-10-15T04:21:21.189Z,6.97
2017-10-15T04:23:48.771Z,6.93
2017-10-15T04:26:16.475Z,6.60
2017-10-15T04:28:43.907Z,5.73
2017-10-15T04:31:11.373Z,5.70
2017-10-15T04:33:38.799Z,7.33
2017-10-15T04:36:06.365Z,6.27
2017-10-15T04:38:34.001Z,5.73
2017-10-15T04:41:01.600Z,6.50
2017-10-15T04:43:29.213Z,6.60
2017-10-15T04:45:56.800Z,5.37
2017-10-15T04:48:24.256Z,5.80
2017-10-15T04:50:51.715Z,5.77
2017-10-15T04:53:19.368Z,5.27
2017-10-15T04:55:46.946Z,5.00
2017-10-15T04:58:14.567Z,6.07
2017-10-15T05:00:42.012Z,5.80
2017-10-15T05:03:10.320Z,5.80
2017-10-15T05:05:37.887Z,6.60
2017-10-15T05:08:05.445Z,5.50
2017-10-15T05:10:32.897Z,5.87
2017-10-15T05:13:00.323Z,6.03
2017-10-15T05:15:27.743Z,5.30
2017-10-15T05:17:55.186Z,5.83
2017-10-15T05:20:22.596Z,6.53
2017-10-15T05:22:50.172Z,6.33
2017-10-15T05:25:17.596Z,7.20
2017-10-15T05:27:45.093Z,6.60
2017-10-15T05:30:12.734Z,8.00
2017-10-15T05:32:40.208Z,9.40
2017-10-15T05:35:07.678Z,10.67
2017-10-15T05:37:35.118Z,10.00
2017-10-15T05:40:02.660Z,8.80
2017-10-15T05:42:30.083Z,9.57
2017-10-15T05:44:57.517Z,10.17
2017-10-15T05:47:25.047Z,10.70
2017-10-15T05:49:52.508Z,11.23
2017-10-15T05:52:19.965Z,10.80
2017-10-15T05:54:47.425Z,13.07
2017-10-15T05:57:14.876Z,12.30
2017-10-15T05:59:42.516Z,13.10
2017-10-15T06:02:10.093Z,11.30
2017-10-15T06:04:37.527Z,12.83
2017-10-15T06:07:04.967Z,12.60
2017-10-15T06:09:32.384Z,13.53
2017-10-15T06:11:59.831Z,12.67
2017-10-15T06:14:27.282Z,13.47
2017-10-15T06:16:54.719Z,12.83
2017-10-15T06:19:22.205Z,11.23
2017-10-15T06:21:49.637Z,13.43
2017-10-15T06:24:17.141Z,12.30
2017-10-15T06:26:44.581Z,12.27
2017-10-15T06:29:12.117Z,12.60
2017-10-15T06:31:39.573Z,14.20
2017-10-15T06:34:07.215Z,15.20
2017-10-15T06:36:34.665Z,13.27
2017-10-15T06:39:02.164Z,10.53
2017-10-15T06:41:29.583Z,13.93
2017-10-15T06:43:57.160Z,13.67
2017-10-15T06:46:24.588Z,14.13
2017-10-15T06:48:52.077Z,13.40
2017-10-15T06:51:19.512Z,12.13
2017-10-15T06:53:46.939Z,14.40
2017-10-15T06:56:14.369Z,12.30
2017-10-15T06:58:41.816Z,13.07
2017-10-15T07:01:09.318Z,13.27
2017-10-15T07:03:36.751Z,12.97
2017-10-15T07:06:04.192Z,13.07
2017-10-15T07:08:31.728Z,15.30
2017-10-15T07:10:59.491Z,11.70
2017-10-15T07:13:27.735Z,13.10
2017-10-15T07:15:55.217Z,12.80
2017-10-15T07:18:23.135Z,12.40
2017-10-15T07:20:50.849Z,13.23
2017-10-15T07:23:18.292Z,13.13
2017-10-15T07:25:45.778Z,10.80
2017-10-15T07:28:13.745Z,13.73
2017-10-15T07:30:42.607Z,12.53
2017-10-15T07:33:10.049Z,11.90
2017-10-15T07:35:37.740Z,12.00
2017-10-15T07:38:05.185Z,11.30
2017-10-15T07:40:32.628Z,11.40
2017-10-15T07:43:00.304Z,12.80
2017-10-15T07:45:27.864Z,11.27
2017-10-15T07:47:55.556Z,11.47
2017-10-15T07:50:23.016Z,11.70
2017-10-15T07:52:50.464Z,11.00
2017-10-15T07:55:17.899Z,12.03
2017-10-15T07:57:45.340Z,12.10
2017-10-15T08:00:12.918Z,14.00
2017-10-15T08:02:40.546Z,12.60
2017-10-15T08:05:08.013Z,11.77
2017-10-15T08:07:35.434Z,15.10
2017-10-15T08:10:03.846Z,13.50
2017-10-15T08:12:31.418Z,14.00
2017-10-15T08:14:59.063Z,14.83
2017-10-15T08:17:26.657Z,14.80
2017-10-15T08:19:54.317Z,14.13
2017-10-15T08:22:21.869Z,15.40
2017-10-15T08:24:49.321Z,16.53
2017-10-15T08:27:16.903Z,17.37
2017-10-15T08:29:44.356Z,16.50
2017-10-15T08:32:12.001Z,18.00
2017-10-15T08:34:39.469Z,16.90
2017-10-15T08:37:06.887Z,18.40
2017-10-15T08:39:34.358Z,17.37
2017-10-15T08:42:01.793Z,19.33
2017-10-15T08:44:29.240Z,18.13
2017-10-15T08:46:56.655Z,23.00
2017-10-15T08:49:24.103Z,19.30
2017-10-15T08:51:51.547Z,20.80
2017-10-15T08:54:19.021Z,20.40
2017-10-15T08:56:46.457Z,20.10
2017-10-15T08:59:13.934Z,19.93
2017-10-15T09:01:41.364Z,20.83
2017-10-15T09:04:08.931Z,18.20
2017-10-15T09:06:36.365Z,18.40
2017-10-15T09:09:03.844Z,17.00
2017-10-15T09:11:31.301Z,17.07
2017-10-15T09:13:58.745Z,17.10
2017-10-15T09:16:26.181Z,16.43
2017-10-15T09:18:53.620Z,17.50
2017-10-15T09:21:21.085Z,18.40
2017-10-15T09:23:48.588Z,18.40
2017-10-15T09:26:16.025Z,18.60
2017-10-15T09:28:43.492Z,19.90
2017-10-15T09:31:10.977Z,18.37
2017-10-15T09:33:38.611Z,18.60
2017-10-15T09:36:06.052Z,18.47
2017-10-15T09:38:33.534Z,18.63
2017-10-15T09:41:01.063Z,20.30
2017-10-15T09:43:28.493Z,22.50
2017-10-15T09:45:55.989Z,21.60
2017-10-15T09:48:23.634Z,21.17
2017-10-15T09:50:51.059Z,22.10
2017-10-15T09:53:19.247Z,21.23
2017-10-15T09:55:46.710Z,21.17
2017-10-15T09:58:14.144Z,20.53
2017-10-15T10:00:41.607Z,22.13
2017-10-15T10:03:09.104Z,21.50
2017-10-15T10:05:36.531Z,22.83
2017-10-15T10:08:04.008Z,22.00
2017-10-15T10:10:31.474Z,22.33
2017-10-15T10:12:58.899Z,24.97
2017-10-15T10:15:26.344Z,25.40
2017-10-15T10:17:53.832Z,23.07
2017-10-15T10:20:21.367Z,23.90
2017-10-15T10:22:48.935Z,24.90
2017-10-15T10:25:16.427Z,22.83
2017-10-15T10:27:44.483Z,25.33
2017-10-15T10:30:12.048Z,28.20
2017-10-15T10:32:39.598Z,25.37
2017-10-15T10:35:07.149Z,25.53
2017-10-15T10:37:34.664Z,26.27
2017-10-15T10:40:02.177Z,23.73
2017-10-15T10:42:29.636Z,26.03
2017-10-15T10:44:57.280Z,27.70
2017-10-15T10:47:24.751Z,26.80
2017-10-15T10:49:52.328Z,24.47
2017-10-15T10:52:19.738Z,27.73
2017-10-15T10:54:47.170Z,27.30
2017-10-15T10:57:14.590Z,27.13
2017-10-15T10:59:42.142Z,26.30
2017-10-15T11:02:09.592Z,24.20
2017-10-15T11:04:37.056Z,25.10
2017-10-15T11:07:04.485Z,24.80
2017-10-15T11:09:31.922Z,25.27
2017-10-15T11:11:59.339Z,25.10
2017-10-15T11:14:26.779Z,25.30
2017-10-15T11:16:54.209Z,25.20
2017-10-15T11:19:21.655Z,26.20
2017-10-15T11:21:49.135Z,24.73
2017-10-15T11:24:16.688Z,23.90
2017-10-15T11:26:44.112Z,24.37
2017-10-15T11:29:11.600Z,23.93
2017-10-15T11:31:39.069Z,25.30
2017-10-15T11:34:06.516Z,23.57
2017-10-15T11:36:33.955Z,25.30
2017-10-15T11:39:01.431Z,24.63
2017-10-15T11:41:28.864Z,22.03
2017-10-15T11:43:56.287Z,25.10
2017-10-15T11:46:23.724Z,24.83
2017-10-15T11:48:51.248Z,21.73
2017-10-15T11:51:18.689Z,23.60
2017-10-15T11:53:46.167Z,23.63
2017-10-15T11:56:13.622Z,25.37
2017-10-15T11:58:41.043Z,22.13
2017-10-15T12:01:08.541Z,22.93
2017-10-15T12:03:35.965Z,24.23
2017-10-15T12:06:03.462Z,22.87
2017-10-15T12:08:31.221Z,23.43
2017-10-15T12:10:58.659Z,21.20
2017-10-15T12:13:26.309Z,21.20
2017-10-15T12:15:53.787Z,21.40
2017-10-15T12:18:21.505Z,21.47
2017-10-15T12:20:49.703Z,19.30
2017-10-15T12:23:17.177Z,20.77
2017-10-15T12:25:44.639Z,21.87
2017-10-15T12:28:12.073Z,18.53
2017-10-15T12:30:39.545Z,20.83
2017-10-15T12:33:07.008Z,19.27
2017-10-15T12:35:34.652Z,19.50
2017-10-15T12:38:02.139Z,18.60
2017-10-15T12:40:29.624Z,21.60
2017-10-15T12:42:57.040Z,20.00
2017-10-15T12:45:24.472Z,18.67
2017-10-15T12:47:51.962Z,19.20
2017-10-15T12:50:19.512Z,17.97
2017-10-15T12:52:46.932Z,16.80
2017-10-15T12:55:14.363Z,18.80
2017-10-15T12:57:42.557Z,18.73
2017-10-15T13:00:10.171Z,17.53
2017-10-15T13:02:37.593Z,14.47
2017-10-15T13:05:05.043Z,16.93
2017-10-15T13:07:32.472Z,15.77
2017-10-15T13:10:01.402Z,17.70
2017-10-15T13:12:29.756Z,17.53
2017-10-15T13:14:57.187Z,15.40
2017-10-15T13:17:24.621Z,17.20
2017-10-15T13:19:52.817Z,16.60
2017-10-15T13:22:20.380Z,16.13
2017-10-15T13:24:47.800Z,16.70
2017-10-15T13:27:15.231Z,16.53
2017-10-15T13:29:42.647Z,17.77
2017-10-15T13:32:10.852Z,17.27
2017-10-15T13:34:38.281Z,17.30
2017-10-15T13:37:05.712Z,16.60
2017-10-15T13:39:33.145Z,16.67
2017-10-15T13:42:00.584Z,17.67
2017-10-15T13:44:27.995Z,18.90
2017-10-15T13:46:55.432Z,16.07
2017-10-15T13:49:22.869Z,15.77
2017-10-15T13:51:50.468Z,16.13
2017-10-15T13:54:17.902Z,16.67
2017-10-15T13:56:45.332Z,18.07
2017-10-15T13:59:12.751Z,15.20
2017-10-15T14:01:40.957Z,16.40
2017-10-15T14:04:08.378Z,16.93
2017-10-15T14:06:35.804Z,16.40
2017-10-15T14:09:03.225Z,15.60
2017-10-15T14:11:30.659Z,15.63
2017-10-15T14:13:58.085Z,15.40
2017-10-15T14:16:25.523Z,15.97
2017-10-15T14:18:53.164Z,15.97
2017-10-15T14:21:20.617Z,16.07
2017-10-15T14:23:48.046Z,16.13
2017-10-15T14:26:15.490Z,16.50
2017-10-15T14:28:42.911Z,14.73
2017-10-15T14:31:10.339Z,15.00
2017-10-15T14:33:37.832Z,16.93
2017-10-15T14:36:05.272Z,15.80
2017-10-15T14:38:32.743Z,17.20
2017-10-15T14:41:00.175Z,15.03
2017-10-15T14:43:27.601Z,15.80
2017-10-15T14:45:55.060Z,15.35
2017-10-15T14:48:22.485Z,14.40
2017-10-15T14:50:50.679Z,16.70
2017-10-15T14:53:18.099Z,15.00
2017-10-15T14:55:45.555Z,15.13
2017-10-15T14:58:12.979Z,15.03
2017-10-15T15:00:40.424Z,15.40
2017-10-15T15:03:07.916Z,15.90
2017-10-15T15:05:35.346Z,14.10
2017-10-15T15:08:02.789Z,14.47
2017-10-15T15:10:30.220Z,14.87
2017-10-15T15:12:58.418Z,15.60
2017-10-15T15:15:25.835Z,13.50
2017-10-15T15:17:53.263Z,14.50
2017-10-15T15:20:20.680Z,13.63
2017-10-15T15:22:48.111Z,13.60
2017-10-15T15:25:16.329Z,12.23
2017-10-15T15:27:43.774Z,12.03
2017-10-15T15:30:11.244Z,12.10
2017-10-15T15:32:38.738Z,10.30
2017-10-15T15:35:06.169Z,9.57
2017-10-15T15:37:33.602Z,9.70
2017-10-15T15:40:01.063Z,9.33
2017-10-15T15:42:28.507Z,9.63
2017-10-15T15:44:55.923Z,9.13
2017-10-15T15:47:23.356Z,8.00
2017-10-15T15:49:50.876Z,9.60
2017-10-15T15:52:18.395Z,10.30
2017-10-15T15:54:46.094Z,8.80
2017-10-15T15:57:13.519Z,9.83
2017-10-15T15:59:41.017Z,9.97
2017-10-15T16:02:08.450Z,9.13
2017-10-15T16:04:35.921Z,8.30
2017-10-15T16:07:03.361Z,8.80
2017-10-15T16:09:30.779Z,9.33
2017-10-15T16:11:58.205Z,8.00
2017-10-15T16:14:25.652Z,8.30
2017-10-15T16:16:53.200Z,8.97
2017-10-15T16:19:20.624Z,9.80
2017-10-15T16:21:48.055Z,9.80
2017-10-15T16:24:15.507Z,9.40
2017-10-15T16:26:42.952Z,9.97
2017-10-15T16:29:10.393Z,9.73
2017-10-15T16:31:37.864Z,9.40
2017-10-15T16:34:05.279Z,10.83
2017-10-15T16:36:32.855Z,10.90
2017-10-15T16:39:00.310Z,10.20
2017-10-15T16:41:27.772Z,10.25
2017-10-15T16:43:55.536Z,11.87
2017-10-15T16:46:23.300Z,12.03
2017-10-15T16:48:50.740Z,10.80
2017-10-15T16:51:18.178Z,11.30
2017-10-15T16:53:45.617Z,11.03
2017-10-15T16:56:13.812Z,9.57
2017-10-15T16:58:41.249Z,10.60
2017-10-15T17:01:08.673Z,9.30
2017-10-15T17:03:36.291Z,13.30
2017-10-15T17:06:03.805Z,10.80
2017-10-15T17:08:31.249Z,11.93
2017-10-15T17:10:58.782Z,11.53
2017-10-15T17:13:26.212Z,11.77
2017-10-15T17:15:53.628Z,13.23
2017-10-15T17:18:21.140Z,20.13
2017-10-15T17:20:48.588Z,14.63
2017-10-15T17:23:16.030Z,14.90
2017-10-15T17:25:43.449Z,14.83
2017-10-15T17:28:10.882Z,15.30
2017-10-15T17:30:38.341Z,14.63
2017-10-15T17:33:05.888Z,13.97
2017-10-15T17:35:33.307Z,16.00
2017-10-15T17:38:00.740Z,18.70
2017-10-15T17:40:28.217Z,17.30
2017-10-15T17:46:58.319Z,15.80
2017-10-15T17:49:25.860Z,18.40
2017-10-15T17:51:53.619Z,16.97
2017-10-15T17:54:21.060Z,15.33
2017-10-15T17:56:48.519Z,15.73
2017-10-15T17:59:15.944Z,16.07
2017-10-15T18:01:43.384Z,16.70
2017-10-15T18:04:10.898Z,15.57
2017-10-15T18:06:38.335Z,14.90
2017-10-15T18:09:05.809Z,13.40
2017-10-15T18:11:33.237Z,14.60
2017-10-15T18:14:00.683Z,15.83
2017-10-15T18:16:28.100Z,15.63
2017-10-15T18:18:55.547Z,15.03
2017-10-15T18:21:23.112Z,16.60
2017-10-15T18:23:50.550Z,15.40
2017-10-15T18:26:18.020Z,14.63
2017-10-15T18:28:45.460Z,15.80
2017-10-15T18:31:12.880Z,15.60
2017-10-15T18:33:40.371Z,17.40
2017-10-15T18:36:07.800Z,16.83
2017-10-15T18:38:35.239Z,16.30
2017-10-15T18:41:02.754Z,17.50
2017-10-15T18:43:30.225Z,14.67
2017-10-15T18:45:57.639Z,16.30
2017-10-15T18:48:25.092Z,14.73
2017-10-15T18:50:52.521Z,13.73
2017-10-15T18:53:19.989Z,14.50
2017-10-15T18:55:47.485Z,14.43
2017-10-15T18:58:14.947Z,16.27
2017-10-15T19:00:42.376Z,15.23
2017-10-15T19:03:09.811Z,16.40
2017-10-15T19:05:37.241Z,15.00
2017-10-15T19:08:04.684Z,13.23
2017-10-15T19:10:32.123Z,13.40
2017-10-15T19:12:59.556Z,12.10
2017-10-15T19:15:27.004Z,14.70
2017-10-15T19:17:54.432Z,13.60
2017-10-15T19:20:21.955Z,14.53
2017-10-15T19:22:49.414Z,13.13
2017-10-15T19:25:16.965Z,13.00
2017-10-15T19:32:12.893Z,11.97
2017-10-15T19:34:40.319Z,13.60
2017-10-15T19:37:07.748Z,14.10
2017-10-15T19:39:35.185Z,13.87
2017-10-15T19:42:02.628Z,13.47
2017-10-15T19:44:30.095Z,12.60
2017-10-15T19:46:58.445Z,13.60
2017-10-15T19:49:25.871Z,13.40
2017-10-15T19:51:54.267Z,14.20
2017-10-15T19:54:23.661Z,15.07
2017-10-15T19:56:51.104Z,14.33
2017-10-15T19:59:18.549Z,14.40
2017-10-15T20:01:46.891Z,12.90
2017-10-15T20:04:14.459Z,12.70
2017-10-15T20:06:42.214Z,13.23
2017-10-15T20:09:09.868Z,11.90
2017-10-15T20:11:37.399Z,11.70
2017-10-15T20:14:04.849Z,11.40
2017-10-15T20:16:32.259Z,13.23
2017-10-15T20:18:59.703Z,12.70
2017-10-15T20:21:27.129Z,13.70
2017-10-15T20:23:54.655Z,15.63
2017-10-15T20:26:22.169Z,13.17
2017-10-15T20:28:49.803Z,11.87
2017-10-15T20:31:17.389Z,12.30
2017-10-15T20:33:45.148Z,12.80
2017-10-15T20:36:12.568Z,12.80
2017-10-15T20:38:40.004Z,11.90
2017-10-15T20:41:07.520Z,11.90
2017-10-15T20:43:34.978Z,13.70
2017-10-15T20:46:02.752Z,14.80
2017-10-15T20:48:30.196Z,13.27
2017-10-15T20:50:57.841Z,15.13
2017-10-15T20:53:25.412Z,15.87
2017-10-15T20:55:53.051Z,17.00
2017-10-15T20:58:20.508Z,15.07
2017-10-15T21:00:48.000Z,14.83
2017-10-15T21:03:15.432Z,15.20
2017-10-15T21:05:43.005Z,15.10
2017-10-15T21:08:10.451Z,13.90
2017-10-15T21:10:37.936Z,15.07
2017-10-15T21:13:05.671Z,13.53
2017-10-15T21:15:33.113Z,12.90
2017-10-15T21:18:00.532Z,12.93
2017-10-15T21:20:27.974Z,13.03
2017-10-15T21:22:55.398Z,14.27
2017-10-15T21:25:22.964Z,14.63
2017-10-15T21:27:50.415Z,13.40
2017-10-15T21:30:17.869Z,13.23
2017-10-15T21:32:45.298Z,12.40
2017-10-15T21:35:12.736Z,13.73
2017-10-15T21:37:40.169Z,14.00
2017-10-15T21:40:07.619Z,13.90
2017-10-15T21:42:35.043Z,12.90
2017-10-15T21:45:02.617Z,14.33
2017-10-15T21:47:30.247Z,12.73
2017-10-15T21:49:57.772Z,13.83
2017-10-15T21:52:25.284Z,14.60
2017-10-15T21:54:52.927Z,14.37
2017-10-15T21:57:20.351Z,15.57
2017-10-15T21:59:48.557Z,16.83
2017-10-15T22:02:16.037Z,16.23
2017-10-15T22:04:43.487Z,14.83
2017-10-15T22:07:10.943Z,20.30
2017-10-15T22:09:38.713Z,18.27
2017-10-15T22:12:06.469Z,18.77
2017-10-15T22:14:33.892Z,16.87
2017-10-15T22:17:01.332Z,16.93
2017-10-15T22:19:28.769Z,18.40
2017-10-15T22:22:01.931Z,18.47
2017-10-15T22:24:29.507Z,16.40
2017-10-15T22:26:57.039Z,16.00
2017-10-15T22:29:24.473Z,17.10
2017-10-15T22:31:51.959Z,16.87
2017-10-15T22:34:19.412Z,14.80
2017-10-15T22:36:46.868Z,14.00
2017-10-15T22:39:14.327Z,15.17
2017-10-15T22:41:41.760Z,15.00
2017-10-15T22:44:09.237Z,15.70
2017-10-15T22:46:36.672Z,17.00
2017-10-15T22:49:04.113Z,15.03
2017-10-15T22:51:31.617Z,14.50
2017-10-15T22:53:59.053Z,14.50
2017-10-15T22:56:26.518Z,13.63
2017-10-15T22:58:53.948Z,15.43
2017-10-15T23:01:21.389Z,15.40
2017-10-15T23:03:48.811Z,14.80
2017-10-15T23:06:16.269Z,13.90
2017-10-15T23:08:43.796Z,14.30
2017-10-15T23:11:11.236Z,15.37
2017-10-15T23:13:38.669Z,14.97
2017-10-15T23:16:06.100Z,14.47
2017-10-15T23:18:33.538Z,13.90
2017-10-15T23:21:01.081Z,12.50
2017-10-15T23:23:28.520Z,13.30
2017-10-15T23:25:55.947Z,11.50
2017-10-15T23:28:23.376Z,12.43
2017-10-15T23:30:50.829Z,12.37
2017-10-15T23:33:18.287Z,11.90
2017-10-15T23:35:45.732Z,12.23
2017-10-15T23:38:13.272Z,12.50
2017-10-15T23:40:40.736Z,12.80
2017-10-15T23:43:08.191Z,12.57
2017-10-15T23:45:35.643Z,12.83
2017-10-15T23:48:03.100Z,12.00
2017-10-15T23:50:30.541Z,11.30
2017-10-15T23:52:58.016Z,11.00
2017-10-15T23:55:25.654Z,12.10
2017-10-15T23:57:53.150Z,10.83
